Temp: 14.5°C   Baro: 1019.0mb
  Wind: 4.0mph   Dir: NE (45°)
  Rain: 0.2mm (0.0mm/hr)
  Solar: 323W/m2  Hum: 68%
 
Bath Spa Weather Station Historical Data
Daily Summary for March 10, 2020 Units:  Metric    English   Both
Daily Weekly Monthly Yearly Custom
  High: Low: Average:
Temperature: 14.2 °C 11.2 °C 12.7 °C
Dew Point: 12 °C 8.1 °C 10.3 °C
Humidity: 92% 67% 86%
Wind Speed: 9.8km/h 0km/h 3.9km/h
Wind Gust: 17.7km/h - -
Wind- - NW
Pressure: 1018.8 hPa 1014.1 hPa -
Precipitation: 0.25 mm    
Historical Graphs
 
 
Tabular Data for March 10, 2020
Time Temperature Dew Point Pressure Wind Wind Speed Wind Gust Humidity Rainfall Rate (Hourly) solar
00:04 13.4 °C 12 °C 1014.1 hPa NNW 4.3 km/h 12.9 km/h 91% 0 mm 0 W/m2
00:09 13.4 °C 12 °C 1014.1 hPa North 5.1 km/h 12.9 km/h 91% 0 mm 0 W/m2
00:14 13.3 °C 11.9 °C 1014.1 hPa NNW 6.1 km/h 12.9 km/h 91% 0 mm 0 W/m2
00:19 13.3 °C 11.9 °C 1014.1 hPa NNW 5.3 km/h 14.5 km/h 91% 0 mm 0 W/m2
00:24 13.3 °C 11.9 °C 1014.1 hPa NNW 4.5 km/h 8 km/h 91% 0 mm 0 W/m2
00:29 13.3 °C 11.9 °C 1014.4 hPa NW 3.4 km/h 9.7 km/h 91% 0 mm 0 W/m2
00:33 13.4 °C 12 °C 1014.4 hPa NNW 3.5 km/h 9.7 km/h 91% 0 mm 0 W/m2
00:39 13.4 °C 12 °C 1014.4 hPa NNW 2.6 km/h 6.4 km/h 91% 0 mm 0 W/m2
00:42 13.4 °C 12 °C 1014.4 hPa NW 5.8 km/h 11.3 km/h 91% 0 mm 0 W/m2
00:49 13.4 °C 12 °C 1014.4 hPa NW 6.4 km/h 12.9 km/h 91% 0 mm 0 W/m2
00:54 13.4 °C 12 °C 1014.4 hPa NW 4.5 km/h 8 km/h 91% 0 mm 0 W/m2
00:59 13.4 °C 12 °C 1014.4 hPa NW 4.8 km/h 9.7 km/h 91% 0 mm 0 W/m2
01:04 13.3 °C 11.9 °C 1014.4 hPa NNW 4.3 km/h 11.3 km/h 91% 0 mm 0 W/m2
01:09 13.3 °C 11.9 °C 1014.4 hPa North 3.2 km/h 9.7 km/h 91% 0 mm 0 W/m2
01:14 13.3 °C 11.9 °C 1014.4 hPa NNW 3.1 km/h 16.1 km/h 91% 0 mm 0 W/m2
01:19 13.3 °C 11.9 °C 1014.4 hPa NNW 7.1 km/h 16.1 km/h 91% 0 mm 0 W/m2
01:24 13.3 °C 11.9 °C 1014.4 hPa NNW 4.5 km/h 9.7 km/h 91% 0 mm 0 W/m2
01:29 13.3 °C 11.9 °C 1014.4 hPa North 2.3 km/h 6.4 km/h 91% 0 mm 0 W/m2
01:33 13.3 °C 11.9 °C 1014.8 hPa North 3.5 km/h 6.4 km/h 91% 0 mm 0 W/m2
01:39 13.3 °C 11.9 °C 1014.8 hPa North 1.4 km/h 6.4 km/h 91% 0 mm 0 W/m2
01:44 13.2 °C 11.8 °C 1014.8 hPa North 4.5 km/h 8 km/h 91% 0 mm 0 W/m2
01:49 13.2 °C 11.8 °C 1014.8 hPa North 1.9 km/h 9.7 km/h 91% 0 mm 0 W/m2
01:54 13.2 °C 11.8 °C 1014.8 hPa NNE 2.1 km/h 9.7 km/h 91% 0 mm 0 W/m2
01:59 13.1 °C 11.7 °C 1014.8 hPa NNW 4 km/h 11.3 km/h 91% 0 mm 0 W/m2
02:04 13.1 °C 11.7 °C 1014.8 hPa NW 3.2 km/h 11.3 km/h 91% 0 mm 0 W/m2
02:09 13.1 °C 11.7 °C 1014.8 hPa NW 5.1 km/h 12.9 km/h 91% 0 mm 0 W/m2
02:14 13.1 °C 11.7 °C 1014.8 hPa North 3.7 km/h 8 km/h 91% 0 mm 0 W/m2
02:19 13.1 °C 11.7 °C 1014.8 hPa NNW 4 km/h 6.4 km/h 91% 0 mm 0 W/m2
02:24 13.1 °C 11.7 °C 1014.8 hPa NNW 5.8 km/h 9.7 km/h 91% 0 mm 0 W/m2
02:29 13.1 °C 11.7 °C 1014.8 hPa NNW 6.1 km/h 12.9 km/h 91% 0 mm 0 W/m2
02:34 13.1 °C 11.7 °C 1014.8 hPa NNW 2.7 km/h 11.3 km/h 91% 0 mm 0 W/m2
02:39 13 °C 11.6 °C 1014.8 hPa NW 3.2 km/h 6.4 km/h 91% 0 mm 0 W/m2
02:44 13.1 °C 11.7 °C 1014.8 hPa NNW 3.2 km/h 8 km/h 91% 0 mm 0 W/m2
02:49 13 °C 11.6 °C 1014.8 hPa NNW 5.1 km/h 9.7 km/h 91% 0 mm 0 W/m2
02:54 12.9 °C 11.6 °C 1014.8 hPa NNW 4 km/h 8 km/h 91% 0 mm 0 W/m2
02:59 12.9 °C 11.6 °C 1014.8 hPa NNW 2.6 km/h 8 km/h 91% 0 mm 0 W/m2
03:04 12.9 °C 11.5 °C 1014.8 hPa NNW 2.9 km/h 8 km/h 91% 0 mm 0 W/m2
03:09 12.9 °C 11.5 °C 1014.8 hPa NNW 2.3 km/h 8 km/h 91% 0 mm 0 W/m2
03:14 12.8 °C 11.4 °C 1014.8 hPa NNW 1 km/h 8 km/h 91% 0 mm 0 W/m2
03:19 12.7 °C 11.3 °C 1015.1 hPa NNW 2.1 km/h 6.4 km/h 91% 0 mm 0 W/m2
03:24 12.6 °C 11.2 °C 1015.1 hPa NNW 1.9 km/h 4.8 km/h 91% 0 mm 0 W/m2
03:29 12.4 °C 11.1 °C 1015.1 hPa NW 4.5 km/h 9.7 km/h 91% 0 mm 0 W/m2
03:34 12.3 °C 10.9 °C 1015.1 hPa WNW 2.1 km/h 9.7 km/h 91% 0 mm 0 W/m2
03:39 12.3 °C 10.9 °C 1015.1 hPa WNW 1.3 km/h 6.4 km/h 91% 0 mm 0 W/m2
03:44 12.3 °C 10.9 °C 1015.1 hPa WNW 0.6 km/h 3.2 km/h 91% 0 mm 0 W/m2
03:49 12.2 °C 10.8 °C 1015.1 hPa WNW 0.6 km/h 3.2 km/h 91% 0 mm 0 W/m2
03:54 12.2 °C 10.8 °C 1015.1 hPa WNW 0.3 km/h 4.8 km/h 91% 0 mm 0 W/m2
03:59 12.2 °C 10.8 °C 1015.1 hPa Calm     91% 0 mm 0 W/m2
04:04 12.1 °C 10.7 °C 1015.1 hPa Calm     91% 0 mm 0 W/m2
04:09 12.1 °C 10.7 °C 1015.1 hPa Calm     91% 0 mm 0 W/m2
04:14 12 °C 10.6 °C 1015.1 hPa Calm     91% 0 mm 0 W/m2
04:19 11.9 °C 10.5 °C 1015.1 hPa Calm     91% 0 mm 0 W/m2
04:24 11.8 °C 10.4 °C 1015.5 hPa Calm     91% 0 mm 0 W/m2
04:29 11.7 °C 10.3 °C 1015.5 hPa NW 3.9 km/h 8 km/h 91% 0 mm 0 W/m2
04:34 11.8 °C 10.5 °C 1015.5 hPa NNW 4.2 km/h 8 km/h 91.4% 0 mm 0 W/m2
04:39 11.9 °C 10.6 °C 1015.5 hPa NNW 3.5 km/h 12.9 km/h 92% 0 mm 0 W/m2
04:44 12 °C 10.7 °C 1015.5 hPa NW 4.2 km/h 12.9 km/h 92% 0 mm 0 W/m2
04:49 12 °C 10.7 °C 1015.5 hPa NW 4.5 km/h 8 km/h 92% 0 mm 0 W/m2
04:54 12.1 °C 10.8 °C 1015.8 hPa NW 5.8 km/h 9.7 km/h 92% 0 mm 0 W/m2
04:58 12.1 °C 10.8 °C 1015.5 hPa NNW 5.6 km/h 9.7 km/h 92% 0 mm 0 W/m2
05:04 12 °C 10.7 °C 1015.5 hPa NNW 4.2 km/h 8 km/h 92% 0 mm 0 W/m2
05:09 12 °C 10.7 °C 1015.5 hPa NNW 3.1 km/h 9.7 km/h 92% 0 mm 5 W/m2
05:14 11.9 °C 10.6 °C 1015.8 hPa NNW 1 km/h 4.8 km/h 92% 0 mm 5 W/m2
05:19 11.9 °C 10.6 °C 1015.8 hPa NNW 1.8 km/h 4.8 km/h 92% 0 mm 9 W/m2
05:24 11.8 °C 10.4 °C 1015.8 hPa NNW 3.5 km/h 4.8 km/h 91% 0 mm 9 W/m2
05:29 11.7 °C 10.3 °C 1016.1 hPa NNW 3.9 km/h 4.8 km/h 91.4% 0 mm 12 W/m2
05:34 11.7 °C 10.4 °C 1016.1 hPa Calm   4.8 km/h 92% 0 mm 14 W/m2
05:39 11.7 °C 10.4 °C 1016.1 hPa Calm     92% 0 mm 18 W/m2
05:44 11.6 °C 10.3 °C 1016.1 hPa Calm     92% 0 mm 19 W/m2
05:49 11.6 °C 10.3 °C 1016.1 hPa Calm     92% 0 mm 21 W/m2
05:54 11.4 °C 10.2 °C 1016.5 hPa NNW 0.6 km/h 3.2 km/h 92% 0 mm 26 W/m2
05:59 11.3 °C 10.1 °C 1016.5 hPa Calm   1.6 km/h 92% 0 mm 33 W/m2
06:04 11.3 °C 10 °C 1016.1 hPa NNW 1.3 km/h 4.8 km/h 92% 0 mm 40 W/m2
06:09 11.3 °C 10 °C 1016.5 hPa Calm     92% 0 mm 47 W/m2
06:14 11.3 °C 10 °C 1016.5 hPa NNW 1.1 km/h 3.2 km/h 92% 0 mm 46 W/m2
06:19 11.3 °C 10 °C 1016.5 hPa NNW 1.3 km/h 3.2 km/h 92% 0 mm 49 W/m2
06:24 11.2 °C 9.9 °C 1016.5 hPa NNW 1.3 km/h 3.2 km/h 92% 0 mm 63 W/m2
06:29 11.2 °C 9.9 °C 1016.5 hPa NW 1.9 km/h 6.4 km/h 92% 0 mm 83 W/m2
06:34 11.3 °C 9.9 °C 1016.8 hPa WNW 6.3 km/h 11.3 km/h 91.4% 0 mm 84 W/m2
06:39 11.3 °C 9.9 °C 1016.8 hPa West 6 km/h 9.7 km/h 91% 0 mm 113 W/m2
06:44 11.4 °C 10 °C 1016.8 hPa WNW 2.9 km/h 8 km/h 91% 0 mm 172 W/m2
06:49 11.4 °C 9.9 °C 1016.8 hPa NW 3.1 km/h 6.4 km/h 90.6% 0 mm 181 W/m2
06:54 11.7 °C 10.1 °C 1016.8 hPa WNW 2.6 km/h 9.7 km/h 90% 0 mm 195 W/m2
06:59 11.8 °C 10.1 °C 1017.2 hPa NW 5.1 km/h 11.3 km/h 89% 0 mm 221 W/m2
07:04 11.9 °C 9.9 °C 1017.2 hPa NW 5.8 km/h 12.9 km/h 87.4% 0 mm 225 W/m2
07:09 12.1 °C 9.8 °C 1017.2 hPa NNW 4.5 km/h 9.7 km/h 86% 0 mm 190 W/m2
07:14 12.1 °C 9.6 °C 1017.2 hPa NW 5.1 km/h 11.3 km/h 84.5% 0 mm 125 W/m2
07:19 12 °C 9.3 °C 1017.2 hPa NW 5.1 km/h 8 km/h 83.2% 0 mm 218 W/m2
07:24 12.1 °C 9.1 °C 1017.2 hPa NW 3.2 km/h 8 km/h 82% 0 mm 174 W/m2
07:29 12.2 °C 9.2 °C 1017.2 hPa NW 3.9 km/h 8 km/h 82% 0 mm 241 W/m2
07:34 12.2 °C 9 °C 1017.2 hPa NNW 4.7 km/h 8 km/h 81% 0 mm 202 W/m2
07:39 12.3 °C 8.9 °C 1017.2 hPa NW 9 km/h 14.5 km/h 80.2% 0 mm 181 W/m2
07:44 12.4 °C 8.9 °C 1017.5 hPa NW 4.2 km/h 9.7 km/h 79.2% 0 mm 174 W/m2
07:49 12.5 °C 8.9 °C 1017.5 hPa WNW 3.2 km/h 11.3 km/h 78.8% 0 mm 149 W/m2
07:54 12.5 °C 8.7 °C 1017.5 hPa NW 7.1 km/h 17.7 km/h 77.6% 0 mm 156 W/m2
07:59 12.4 °C 8.3 °C 1017.5 hPa NW 4.5 km/h 14.5 km/h 76% 0 mm 167 W/m2
08:04 12.5 °C 8.3 °C 1017.5 hPa NW 6.3 km/h 16.1 km/h 75.8% 0 mm 162 W/m2
08:09 12.4 °C 8.1 °C 1017.8 hPa NNW 7.1 km/h 14.5 km/h 75% 0 mm 199 W/m2
08:14 12.5 °C 8.2 °C 1017.8 hPa NNW 6 km/h 11.3 km/h 74.8% 0 mm 485 W/m2
08:19 12.8 °C 8.4 °C 1017.8 hPa NW 2.6 km/h 9.7 km/h 74.8% 0 mm 339 W/m2
08:24 12.9 °C 8.4 °C 1017.8 hPa NW 4 km/h 9.7 km/h 74.3% 0 mm 411 W/m2
08:29 13 °C 8.5 °C 1017.8 hPa North 6 km/h 12.9 km/h 74% 0 mm 543 W/m2
08:34 13.2 °C 8.4 °C 1017.8 hPa North 7.2 km/h 14.5 km/h 73% 0 mm 241 W/m2
08:39 12.9 °C 8.2 °C 1017.8 hPa NW 6.4 km/h 14.5 km/h 73% 0 mm 216 W/m2
08:44 12.9 °C 8.2 °C 1017.8 hPa NNW 4.2 km/h 11.3 km/h 73% 0 mm 192 W/m2
08:49 12.9 °C 8.3 °C 1018.2 hPa NW 4.2 km/h 8 km/h 73.2% 0 mm 227 W/m2
08:54 13.1 °C 8.4 °C 1018.2 hPa NW 5.5 km/h 12.9 km/h 73.6% 0 mm 295 W/m2
08:59 13.1 °C 8.6 °C 1018.2 hPa NNW 5.3 km/h 11.3 km/h 73.8% 0 mm 378 W/m2
09:04 13.3 °C 8.7 °C 1018.2 hPa NW 6.4 km/h 12.9 km/h 73.4% 0 mm 371 W/m2
09:09 13.5 °C 8.9 °C 1018.5 hPa NNW 4.7 km/h 11.3 km/h 73.8% 0 mm 306 W/m2
09:14 13.5 °C 8.8 °C 1018.5 hPa NW 7.7 km/h 14.5 km/h 73% 0 mm 390 W/m2
09:19 13.6 °C 8.9 °C 1018.5 hPa NNW 7.2 km/h 14.5 km/h 73.4% 0 mm 355 W/m2
09:24 13.8 °C 9.1 °C 1018.5 hPa NNW 7.7 km/h 14.5 km/h 73.4% 0 mm 329 W/m2
09:29 13.8 °C 9 °C 1018.5 hPa NNW 7.2 km/h 16.1 km/h 73.2% 0 mm 281 W/m2
09:34 13.8 °C 8.9 °C 1018.5 hPa NNW 7.1 km/h 14.5 km/h 72.6% 0 mm 366 W/m2
09:39 13.8 °C 9.1 °C 1018.5 hPa North 4.3 km/h 12.9 km/h 73% 0 mm 302 W/m2
09:44 13.9 °C 9.1 °C 1018.5 hPa North 6.6 km/h 14.5 km/h 73% 0 mm 251 W/m2
09:49 14.1 °C 9.2 °C 1018.5 hPa NW 3.4 km/h 8 km/h 73% 0 mm 251 W/m2
09:54 14.2 °C 9.6 °C 1018.5 hPa WNW 6.9 km/h 14.5 km/h 73.8% 0 mm 267 W/m2
09:59 14 °C 8.8 °C 1018.5 hPa North 6.1 km/h 14.5 km/h 71.2% 0 mm 288 W/m2
10:04 14.2 °C 9 °C 1018.8 hPa NNW 6.4 km/h 14.5 km/h 71% 0 mm 260 W/m2
10:09 14.2 °C 8.8 °C 1018.8 hPa North 8 km/h 14.5 km/h 70% 0 mm 279 W/m2
10:14 14.2 °C 8.8 °C 1018.8 hPa NNE 7.2 km/h 16.1 km/h 70% 0 mm 316 W/m2
10:19 14.2 °C 8.4 °C 1018.8 hPa North 9.8 km/h 16.1 km/h 67.8% 0.25 mm 297 W/m2
10:24 14.2 °C 8.2 °C 1018.8 hPa NNW 7.2 km/h 12.9 km/h 67% 0.25 mm 306 W/m2
10:29 14.2 °C 8.3 °C 1018.8 hPa NNW 4 km/h 11.3 km/h 67.5% 0.25 mm 297 W/m2
Bath Spa Weather
Compliments of Weather Underground - 2 mb